Princeton, North Carolina
Current Conditions -  °F | °C
As of 3:35 PM on Friday 21 Nov 2014 (Local Time) from KGWW Reporting Station
Clear Clear  
Wind Chill: 43°   Ceiling: Unl
Heat Index: 47°   Visibility: 10mi
Dew Point: 11°   Wind: 9mph
Humidity: 24%   Direction: 350°N
Pressure: 30.44"   Gusts: 18mph
Location:  35.47°N, 78.16°W
Report Text: KGWW 212035Z AUTO 35008G16KT 10SM CLR 08/M11 A3044 RMK AO2 T00831115
Loading
Personal Weather Stations






























Interactive Weather Map New forecast layout! Learn more

10-Day Weather Forecast

Advertisements
Track Severe Weather on mobile